Time;durP1;ratioP1;P1;durP2;ratioP2;P2;SDS_P1;SDS_P2;PMS_P1;PMS_P2;Temp;Humidity;BMP_temperature;BMP_pressure;BME280_temperature;BME280_humidity;BME280_pressure;Samples;Min_cycle;Max_cycle;Signal;HPM_P1;HPM_P2
2022/07/14 00:00:04;;;;;;;;;;;23.40;72.30;;;;;;5022693;28;20015;-89
2022/07/14 00:02:29;;;;;;;;;;;23.30;72.50;;;;;;4992707;28;19909;-86
2022/07/14 00:04:55;;;;;;;;;;;23.30;73.00;;;;;;5014229;28;19917;-87
2022/07/14 00:07:20;;;;;;;;;;;23.20;73.70;;;;;;5017005;28;19920;-86
2022/07/14 00:09:46;;;;;;;;;;;23.20;73.70;;;;;;5033101;28;19971;-84
2022/07/14 00:12:11;;;;;;;;;;;23.10;74.30;;;;;;5016041;28;19920;-85
2022/07/14 00:14:37;;;;;;;;;;;23.00;74.80;;;;;;5012702;28;19927;-85
2022/07/14 00:17:02;;;;;;;;;;;23.00;75.90;;;;;;5011014;28;19917;-85
2022/07/14 00:19:28;;;;;;;;;;;23.00;76.10;;;;;;5018710;28;19992;-85
2022/07/14 00:21:54;;;;;;;;;;;22.90;76.60;;;;;;4999121;28;20052;-85
2022/07/14 00:24:20;;;;;;;;;;;22.90;77.00;;;;;;5014257;28;20483;-84
2022/07/14 00:26:45;;;;;;;;;;;22.80;77.90;;;;;;5004239;28;19913;-84
2022/07/14 00:29:11;;;;;;;;;;;22.80;77.30;;;;;;5024331;28;20698;-85
2022/07/14 00:31:36;;;;;;;;;;;22.90;77.10;;;;;;5010907;28;20288;-84
2022/07/14 00:34:02;;;;;;;;;;;22.90;76.50;;;;;;5023918;28;20541;-84
2022/07/14 00:36:28;;;;;;;;;;;22.90;76.40;;;;;;5022022;28;19951;-83
2022/07/14 00:38:54;;;;;;;;;;;22.90;75.90;;;;;;5018722;28;19916;-84
2022/07/14 00:41:19;;;;;;;;;;;23.00;75.40;;;;;;5016735;28;20412;-85
2022/07/14 00:43:45;;;;;;;;;;;22.90;75.30;;;;;;5021451;28;19919;-85
2022/07/14 00:46:10;;;;;;;;;;;22.90;75.20;;;;;;5016822;28;19913;-85
2022/07/14 00:48:46;;;;;;;;;;;22.80;75.20;;;;;;5026561;28;19959;-91
2022/07/14 00:51:12;;;;;;;;;;;22.90;74.90;;;;;;5012676;28;19936;-86
2022/07/14 00:53:37;;;;;;;;;;;22.90;74.70;;;;;;5022324;28;21513;-89
2022/07/14 00:56:03;;;;;;;;;;;22.80;74.40;;;;;;5029088;28;20285;-89
2022/07/14 00:58:28;;;;;;;;;;;22.80;74.40;;;;;;5029962;28;19948;-88
2022/07/14 01:00:54;;;;;;;;;;;22.80;74.30;;;;;;5014501;28;19910;-88
2022/07/14 01:03:20;;;;;;;;;;;22.80;74.50;;;;;;5002420;28;19924;-88
2022/07/14 01:05:45;;;;;;;;;;;22.80;74.60;;;;;;5023317;28;19909;-89
2022/07/14 01:08:11;;;;;;;;;;;22.80;74.40;;;;;;5010449;28;19918;-87
2022/07/14 01:10:36;;;;;;;;;;;22.70;74.30;;;;;;5008813;28;20019;-87
2022/07/14 01:13:03;;;;;;;;;;;22.80;73.80;;;;;;5004355;28;19963;-84
2022/07/14 01:15:29;;;;;;;;;;;22.70;73.60;;;;;;5016890;28;19925;-86
2022/07/14 01:17:55;;;;;;;;;;;22.70;73.80;;;;;;5000228;28;19916;-87
2022/07/14 01:20:21;;;;;;;;;;;22.60;74.20;;;;;;5005809;28;20379;-87
2022/07/14 01:22:47;;;;;;;;;;;22.50;74.50;;;;;;5017338;28;19919;-87
2022/07/14 01:25:13;;;;;;;;;;;22.50;74.70;;;;;;5005478;28;19909;-87
2022/07/14 01:27:39;;;;;;;;;;;22.50;74.80;;;;;;5020963;28;19924;-86
2022/07/14 01:30:06;;;;;;;;;;;22.40;75.70;;;;;;5021389;28;19919;-86
2022/07/14 01:32:31;;;;;;;;;;;22.20;76.30;;;;;;5011501;28;20004;-89
2022/07/14 01:34:57;;;;;;;;;;;22.20;77.40;;;;;;5005154;28;19920;-86
2022/07/14 01:37:22;;;;;;;;;;;22.10;78.50;;;;;;5005424;28;19913;-87
2022/07/14 01:39:48;;;;;;;;;;;22.10;79.10;;;;;;5021635;28;19913;-85
2022/07/14 01:42:13;;;;;;;;;;;22.00;80.00;;;;;;5024345;28;19913;-86
2022/07/14 01:44:39;;;;;;;;;;;21.80;80.90;;;;;;5025034;28;19912;-87
2022/07/14 01:47:05;;;;;;;;;;;21.80;82.60;;;;;;5004106;28;20676;-86
2022/07/14 01:49:30;;;;;;;;;;;21.60;84.00;;;;;;5019639;28;19932;-87
2022/07/14 01:51:56;;;;;;;;;;;21.60;85.30;;;;;;5017810;28;19917;-88
2022/07/14 01:54:24;;;;;;;;;;;21.60;85.70;;;;;;5001270;28;19917;-88
2022/07/14 01:56:50;;;;;;;;;;;21.50;87.10;;;;;;5021409;28;20004;-88
2022/07/14 01:59:15;;;;;;;;;;;21.50;88.00;;;;;;5018640;28;19917;-87
2022/07/14 02:01:41;;;;;;;;;;;21.40;88.90;;;;;;5024532;28;19913;-87
2022/07/14 02:04:11;;;;;;;;;;;21.30;90.10;;;;;;5005889;28;19928;-87
2022/07/14 02:06:39;;;;;;;;;;;21.40;90.30;;;;;;5021296;28;19920;-86
2022/07/14 02:09:05;;;;;;;;;;;21.30;90.50;;;;;;5003904;28;20482;-87
2022/07/14 02:14:14;;;;;;;;;;;21.30;90.50;;;;;;5010958;28;19924;-86
2022/07/14 02:16:40;;;;;;;;;;;21.30;90.40;;;;;;4997178;28;19914;-86
2022/07/14 02:19:06;;;;;;;;;;;21.20;91.10;;;;;;5021908;28;20005;-86
2022/07/14 02:21:32;;;;;;;;;;;21.20;91.00;;;;;;5003241;28;19917;-85
2022/07/14 02:23:58;;;;;;;;;;;21.20;91.20;;;;;;5019418;28;19932;-86
2022/07/14 02:26:24;;;;;;;;;;;21.10;91.60;;;;;;5022043;28;19937;-86
2022/07/14 02:28:49;;;;;;;;;;;21.20;91.30;;;;;;5022720;28;19913;-86
2022/07/14 02:31:15;;;;;;;;;;;21.10;91.60;;;;;;5018167;28;20676;-85
2022/07/14 02:33:41;;;;;;;;;;;21.00;92.00;;;;;;5021137;28;20369;-85
2022/07/14 02:36:07;;;;;;;;;;;21.00;92.20;;;;;;5020360;28;19919;-86
2022/07/14 02:38:33;;;;;;;;;;;21.10;92.20;;;;;;5004814;28;20308;-87
2022/07/14 02:40:58;;;;;;;;;;;20.90;92.60;;;;;;5020784;28;19920;-85
2022/07/14 02:43:26;;;;;;;;;;;21.00;92.00;;;;;;5024428;28;19909;-87
2022/07/14 02:45:51;;;;;;;;;;;21.00;91.70;;;;;;5014288;28;19913;-85
2022/07/14 02:48:17;;;;;;;;;;;21.00;91.80;;;;;;5019128;28;19919;-86
2022/07/14 02:50:43;;;;;;;;;;;21.00;91.80;;;;;;5023827;28;19912;-87
2022/07/14 02:53:08;;;;;;;;;;;20.90;92.10;;;;;;5004354;28;19943;-86
2022/07/14 02:55:34;;;;;;;;;;;20.80;92.70;;;;;;5021134;28;19952;-87
2022/07/14 02:58:00;;;;;;;;;;;20.70;93.00;;;;;;5022444;28;19952;-84
2022/07/14 03:00:26;;;;;;;;;;;20.70;93.10;;;;;;5025498;28;20384;-84
2022/07/14 03:02:52;;;;;;;;;;;20.70;93.60;;;;;;5022445;28;19913;-84
2022/07/14 03:05:18;;;;;;;;;;;20.60;93.60;;;;;;5023235;28;20047;-84
2022/07/14 03:07:44;;;;;;;;;;;20.60;93.80;;;;;;5020991;28;20011;-86
2022/07/14 03:10:09;;;;;;;;;;;20.50;94.30;;;;;;5021023;28;20239;-87
2022/07/14 03:12:35;;;;;;;;;;;20.50;95.30;;;;;;5023258;28;20396;-86
2022/07/14 03:15:01;;;;;;;;;;;20.50;95.40;;;;;;5023197;28;20396;-86
2022/07/14 03:17:26;;;;;;;;;;;20.40;95.50;;;;;;5017597;28;19913;-86
2022/07/14 03:19:52;;;;;;;;;;;20.50;95.50;;;;;;5014532;28;19920;-87
2022/07/14 03:22:18;;;;;;;;;;;20.40;95.70;;;;;;5020151;28;19913;-85
2022/07/14 03:24:44;;;;;;;;;;;20.40;95.60;;;;;;5005024;28;19935;-85
2022/07/14 03:27:09;;;;;;;;;;;20.40;95.50;;;;;;5003903;28;19920;-84
2022/07/14 03:29:35;;;;;;;;;;;20.40;95.10;;;;;;5022061;28;19921;-89
2022/07/14 03:32:01;;;;;;;;;;;20.50;95.00;;;;;;5005834;28;19924;-94
2022/07/14 03:34:26;;;;;;;;;;;20.30;95.40;;;;;;5003409;28;19920;-93
2022/07/14 03:36:52;;;;;;;;;;;20.30;95.70;;;;;;5034139;28;19941;-94
2022/07/14 03:39:17;;;;;;;;;;;20.40;95.20;;;;;;5020857;28;20528;-85
2022/07/14 03:41:43;;;;;;;;;;;20.40;94.80;;;;;;5020798;28;19970;-85
2022/07/14 03:44:09;;;;;;;;;;;20.40;95.00;;;;;;5016337;28;20392;-81
2022/07/14 03:46:34;;;;;;;;;;;20.30;95.60;;;;;;5015124;28;19917;-81
2022/07/14 03:49:00;;;;;;;;;;;20.20;96.00;;;;;;5017706;28;20307;-85
2022/07/14 03:51:26;;;;;;;;;;;20.20;96.40;;;;;;5017502;28;19994;-82
2022/07/14 03:53:51;;;;;;;;;;;20.00;97.20;;;;;;5014109;28;19992;-81
2022/07/14 03:56:17;;;;;;;;;;;19.90;98.20;;;;;;5017664;28;19996;-81
2022/07/14 03:58:43;;;;;;;;;;;19.90;98.70;;;;;;5022087;28;19917;-81
2022/07/14 04:01:08;;;;;;;;;;;19.90;98.70;;;;;;5018463;28;20008;-80
2022/07/14 04:03:34;;;;;;;;;;;19.90;99.10;;;;;;5017865;28;19999;-81
2022/07/14 04:06:00;;;;;;;;;;;19.90;99.60;;;;;;5002904;28;19913;-89
2022/07/14 04:08:25;;;;;;;;;;;19.90;99.60;;;;;;5004879;28;19960;-87
2022/07/14 04:10:51;;;;;;;;;;;19.90;99.60;;;;;;5021733;28;19913;-87
2022/07/14 04:13:16;;;;;;;;;;;19.90;99.40;;;;;;5019258;28;19921;-88
2022/07/14 04:15:42;;;;;;;;;;;20.00;99.30;;;;;;5021764;28;19917;-89
2022/07/14 04:18:08;;;;;;;;;;;19.90;99.60;;;;;;5007244;28;20376;-93
2022/07/14 04:20:33;;;;;;;;;;;19.90;99.90;;;;;;5032121;28;19913;-92
2022/07/14 04:22:59;;;;;;;;;;;20.00;99.00;;;;;;5021960;28;19935;-94
2022/07/14 04:25:25;;;;;;;;;;;20.00;98.60;;;;;;5022781;28;19909;-93
2022/07/14 04:27:51;;;;;;;;;;;20.00;98.90;;;;;;5013232;28;19964;-94
2022/07/14 04:30:17;;;;;;;;;;;19.90;99.80;;;;;;5008531;28;19917;-93
2022/07/14 04:32:43;;;;;;;;;;;19.80;99.90;;;;;;5002674;28;19913;-92
2022/07/14 04:35:09;;;;;;;;;;;19.80;99.90;;;;;;5011814;28;19971;-87
2022/07/14 04:37:34;;;;;;;;;;;19.90;99.90;;;;;;5009727;28;20480;-88
2022/07/14 04:40:00;;;;;;;;;;;20.00;99.60;;;;;;5038723;28;20485;-86
2022/07/14 04:42:26;;;;;;;;;;;20.40;98.30;;;;;;4999118;28;19924;-85
2022/07/14 04:44:52;;;;;;;;;;;20.80;95.90;;;;;;5013492;28;19920;-86
2022/07/14 04:47:18;;;;;;;;;;;21.10;94.50;;;;;;5017991;28;20020;-86
2022/07/14 04:52:28;;;;;;;;;;;21.30;93.40;;;;;;5020514;28;20401;-84
2022/07/14 04:54:53;;;;;;;;;;;21.30;92.90;;;;;;5005563;28;19921;-85
2022/07/14 04:57:19;;;;;;;;;;;21.50;92.30;;;;;;5013439;28;19913;-88
2022/07/14 04:59:45;;;;;;;;;;;21.90;91.20;;;;;;5007245;28;19920;-84
2022/07/14 05:02:10;;;;;;;;;;;21.70;92.00;;;;;;5021273;28;20604;-85
2022/07/14 05:04:36;;;;;;;;;;;22.30;89.40;;;;;;5022271;28;19916;-84
2022/07/14 05:07:02;;;;;;;;;;;22.70;85.90;;;;;;5023117;28;19913;-86
2022/07/14 05:09:34;;;;;;;;;;;22.80;84.70;;;;;;5013310;28;20071;-89
2022/07/14 05:12:01;;;;;;;;;;;23.00;83.50;;;;;;5025955;28;19909;-89
2022/07/14 05:14:27;;;;;;;;;;;23.00;83.50;;;;;;5025787;28;19972;-94
2022/07/14 05:16:52;;;;;;;;;;;23.50;80.70;;;;;;5010863;28;19913;-91
2022/07/14 05:19:18;;;;;;;;;;;23.80;81.10;;;;;;5026451;28;19913;-88
2022/07/14 05:21:44;;;;;;;;;;;24.60;77.70;;;;;;5020913;28;19912;-83
2022/07/14 05:24:10;;;;;;;;;;;25.40;75.10;;;;;;5017750;28;19920;-84
2022/07/14 05:26:35;;;;;;;;;;;25.60;73.10;;;;;;5025183;28;19951;-83
2022/07/14 05:29:01;;;;;;;;;;;25.50;73.20;;;;;;5023326;28;19941;-85
2022/07/14 05:31:27;;;;;;;;;;;25.60;72.80;;;;;;5005314;28;20012;-85
2022/07/14 05:33:52;;;;;;;;;;;26.10;70.30;;;;;;5005083;28;20439;-88
2022/07/14 05:36:18;;;;;;;;;;;26.20;70.40;;;;;;5006629;28;19932;-86
2022/07/14 05:38:43;;;;;;;;;;;26.20;71.00;;;;;;5004972;28;19951;-85
2022/07/14 05:41:09;;;;;;;;;;;26.50;68.80;;;;;;5022702;28;19908;-84
2022/07/14 05:43:34;;;;;;;;;;;26.90;67.00;;;;;;5023488;28;19963;-86
2022/07/14 05:46:07;;;;;;;;;;;26.90;67.50;;;;;;5019876;28;20000;-86
2022/07/14 05:48:33;;;;;;;;;;;27.50;65.80;;;;;;5015181;28;19920;-83
2022/07/14 05:51:02;;;;;;;;;;;27.80;64.80;;;;;;5005610;28;19941;-88
2022/07/14 05:53:28;;;;;;;;;;;27.80;64.10;;;;;;5007917;28;19917;-87
2022/07/14 05:55:53;;;;;;;;;;;28.20;62.90;;;;;;5019742;28;19917;-84
2022/07/14 05:58:19;;;;;;;;;;;28.70;62.60;;;;;;5015271;28;19920;-88
2022/07/14 06:00:44;;;;;;;;;;;28.70;61.60;;;;;;5023128;28;19976;-89
2022/07/14 06:03:10;;;;;;;;;;;29.20;60.20;;;;;;5001167;28;20404;-89
2022/07/14 06:05:35;;;;;;;;;;;29.60;59.80;;;;;;5020036;28;20498;-86
2022/07/14 06:08:01;;;;;;;;;;;30.00;58.90;;;;;;5020891;28;19917;-85
2022/07/14 06:10:27;;;;;;;;;;;30.00;58.70;;;;;;5034561;28;19928;-85
2022/07/14 06:12:52;;;;;;;;;;;29.90;58.50;;;;;;5004925;28;19983;-84
2022/07/14 06:15:18;;;;;;;;;;;30.60;58.70;;;;;;5019782;28;19921;-85
2022/07/14 06:17:43;;;;;;;;;;;31.10;56.30;;;;;;5001751;28;19917;-86
2022/07/14 06:20:09;;;;;;;;;;;30.80;56.70;;;;;;5024534;28;19919;-90
2022/07/14 06:22:37;;;;;;;;;;;31.00;55.40;;;;;;5004106;28;19982;-90
2022/07/14 06:25:03;;;;;;;;;;;31.30;56.40;;;;;;5015548;28;19924;-91
2022/07/14 06:27:28;;;;;;;;;;;30.80;57.30;;;;;;5005150;28;19938;-91
2022/07/14 06:29:54;;;;;;;;;;;31.50;56.10;;;;;;5005182;28;20640;-94
2022/07/14 06:32:20;;;;;;;;;;;32.30;53.90;;;;;;5027698;28;20369;-89
2022/07/14 06:34:46;;;;;;;;;;;32.00;54.50;;;;;;5003208;28;19956;-92
2022/07/14 06:37:12;;;;;;;;;;;31.90;54.20;;;;;;5037071;28;19915;-96
2022/07/14 06:39:37;;;;;;;;;;;32.30;55.10;;;;;;5014665;28;20417;-95
2022/07/14 06:42:03;;;;;;;;;;;32.60;53.30;;;;;;5005552;28;19917;-93
2022/07/14 06:44:29;;;;;;;;;;;32.10;52.60;;;;;;5006167;28;20109;-94
2022/07/14 06:46:55;;;;;;;;;;;32.60;52.30;;;;;;5038015;28;20019;-93
2022/07/14 06:49:21;;;;;;;;;;;33.20;52.00;;;;;;5010983;28;19924;-94
2022/07/14 06:51:46;;;;;;;;;;;32.90;53.20;;;;;;5017719;28;20360;-95
2022/07/14 06:54:12;;;;;;;;;;;33.40;51.90;;;;;;5011210;28;20446;-93
2022/07/14 06:56:37;;;;;;;;;;;33.60;51.60;;;;;;5010777;28;19924;-94
2022/07/14 06:59:03;;;;;;;;;;;33.80;52.10;;;;;;5022472;28;20531;-94
2022/07/14 07:01:29;;;;;;;;;;;33.40;51.00;;;;;;5038063;28;20026;-96
2022/07/14 07:03:54;;;;;;;;;;;33.40;50.30;;;;;;5034008;28;20748;-92
2022/07/14 07:09:04;;;;;;;;;;;33.50;49.90;;;;;;5024465;28;19916;-96
2022/07/14 07:11:30;;;;;;;;;;;34.00;49.80;;;;;;5012266;28;19943;-94
2022/07/14 07:13:55;;;;;;;;;;;34.90;48.80;;;;;;5017345;28;19913;-90
2022/07/14 07:16:21;;;;;;;;;;;34.80;49.50;;;;;;5004365;28;20011;-90
2022/07/14 07:18:46;;;;;;;;;;;34.90;48.60;;;;;;4999575;28;19920;-89
2022/07/14 07:21:18;;;;;;;;;;;35.90;47.90;;;;;;5020779;28;19963;-91
2022/07/14 07:23:46;;;;;;;;;;;35.40;47.90;;;;;;5022187;28;19994;-92
2022/07/14 07:26:12;;;;;;;;;;;36.20;46.20;;;;;;5002889;28;19978;-90
2022/07/14 07:28:38;;;;;;;;;;;36.30;46.30;;;;;;5005368;28;20007;-89
2022/07/14 07:31:04;;;;;;;;;;;36.60;45.50;;;;;;5005824;28;20019;-89
2022/07/14 07:33:29;;;;;;;;;;;36.80;46.00;;;;;;5006056;28;20062;-90
2022/07/14 07:35:55;;;;;;;;;;;36.50;45.40;;;;;;5028942;28;19963;-90
2022/07/14 07:38:21;;;;;;;;;;;36.50;45.00;;;;;;5005480;28;20443;-90
2022/07/14 07:40:48;;;;;;;;;;;37.90;44.80;;;;;;5000855;28;19913;-94
2022/07/14 07:43:14;;;;;;;;;;;37.70;45.30;;;;;;5021389;28;20328;-90
2022/07/14 07:45:39;;;;;;;;;;;38.40;44.80;;;;;;5016358;28;19964;-91
2022/07/14 07:48:06;;;;;;;;;;;38.40;44.40;;;;;;5021728;28;20530;-90
2022/07/14 07:50:32;;;;;;;;;;;38.30;44.70;;;;;;5004006;28;19987;-91
2022/07/14 07:52:58;;;;;;;;;;;38.60;44.70;;;;;;5003921;28;20016;-91
2022/07/14 07:55:23;;;;;;;;;;;38.30;45.10;;;;;;5006260;28;20012;-92
2022/07/14 07:57:49;;;;;;;;;;;39.00;43.70;;;;;;5004574;28;19970;-92
2022/07/14 08:00:15;;;;;;;;;;;39.60;44.10;;;;;;5006782;28;19966;-92
2022/07/14 08:02:44;;;;;;;;;;;39.00;41.40;;;;;;5029181;28;20486;-91
2022/07/14 08:05:10;;;;;;;;;;;39.40;43.10;;;;;;5015824;28;19921;-90
2022/07/14 08:07:37;;;;;;;;;;;39.70;43.60;;;;;;5025795;28;19936;-92
2022/07/14 08:10:02;;;;;;;;;;;40.00;43.10;;;;;;5025228;28;19917;-92
2022/07/14 08:12:28;;;;;;;;;;;40.00;42.80;;;;;;5008362;28;20330;-92
2022/07/14 08:14:54;;;;;;;;;;;40.30;42.20;;;;;;5020183;28;19916;-92
2022/07/14 08:17:20;;;;;;;;;;;40.50;42.60;;;;;;5032222;28;20017;-91
2022/07/14 08:19:46;;;;;;;;;;;40.70;42.60;;;;;;5024317;28;20353;-92
2022/07/14 08:22:12;;;;;;;;;;;41.30;43.10;;;;;;5019224;28;19920;-92
2022/07/14 08:24:38;;;;;;;;;;;41.20;42.20;;;;;;5018075;28;19905;-91
2022/07/14 08:27:04;;;;;;;;;;;40.40;41.90;;;;;;5020959;28;20000;-91
2022/07/14 08:29:29;;;;;;;;;;;41.30;43.70;;;;;;5019406;28;19920;-92
2022/07/14 08:31:55;;;;;;;;;;;41.40;42.30;;;;;;5019239;28;19935;-92
2022/07/14 08:34:21;;;;;;;;;;;42.50;41.10;;;;;;5023114;28;19976;-83
2022/07/14 08:36:48;;;;;;;;;;;42.30;40.10;;;;;;5011693;28;20068;-84
2022/07/14 08:39:15;;;;;;;;;;;42.90;40.70;;;;;;5014000;28;19909;-86
2022/07/14 08:41:41;;;;;;;;;;;43.00;40.40;;;;;;5009279;28;19955;-86
2022/07/14 08:44:08;;;;;;;;;;;42.90;39.40;;;;;;5014319;28;20501;-87
2022/07/14 08:46:36;;;;;;;;;;;43.40;40.60;;;;;;5002988;28;20003;-86
2022/07/14 08:49:03;;;;;;;;;;;44.40;38.70;;;;;;5007154;28;19908;-86
2022/07/14 08:51:30;;;;;;;;;;;44.40;37.50;;;;;;5017163;28;19920;-86
2022/07/14 08:53:56;;;;;;;;;;;44.60;37.70;;;;;;5017662;28;20798;-86
2022/07/14 08:56:21;;;;;;;;;;;44.80;38.00;;;;;;5016279;28;19913;-86
2022/07/14 08:58:47;;;;;;;;;;;44.70;38.40;;;;;;5024555;28;19909;-86
2022/07/14 09:01:13;;;;;;;;;;;44.90;38.80;;;;;;5019542;28;19948;-86
2022/07/14 09:03:39;;;;;;;;;;;44.90;39.00;;;;;;5010312;28;19913;-86
2022/07/14 09:06:05;;;;;;;;;;;44.50;38.80;;;;;;5017868;28;19912;-91
2022/07/14 09:08:51;;;;;;;;;;;44.90;38.10;;;;;;5018831;28;19915;-91
2022/07/14 09:11:17;;;;;;;;;;;44.50;37.90;;;;;;5007564;28;19944;-92
2022/07/14 09:13:43;;;;;;;;;;;43.50;37.50;;;;;;5027333;28;19909;-92
2022/07/14 09:16:20;;;;;;;;;;;44.70;38.00;;;;;;5024580;28;20303;-92
2022/07/14 09:19:05;;;;;;;;;;;44.70;38.30;;;;;;5023407;28;19917;-91
2022/07/14 09:21:31;;;;;;;;;;;44.60;37.50;;;;;;5014493;28;19957;-88
2022/07/14 09:23:58;;;;;;;;;;;44.60;37.50;;;;;;5004280;28;20552;-85
2022/07/14 09:26:23;;;;;;;;;;;45.10;37.90;;;;;;5003142;28;19920;-86
2022/07/14 09:28:50;;;;;;;;;;;45.50;38.60;;;;;;5016250;28;19913;-85
2022/07/14 09:31:23;;;;;;;;;;;45.40;38.10;;;;;;5024980;28;19920;-83
2022/07/14 09:33:49;;;;;;;;;;;45.50;38.30;;;;;;5019520;28;20288;-84
2022/07/14 09:36:31;;;;;;;;;;;45.60;38.00;;;;;;5005414;28;19917;-84
2022/07/14 09:39:04;;;;;;;;;;;44.60;37.30;;;;;;5003980;28;20012;-84
2022/07/14 09:41:32;;;;;;;;;;;45.50;38.20;;;;;;5007853;28;19967;-84
2022/07/14 09:44:09;;;;;;;;;;;45.50;35.50;;;;;;5014802;28;20447;-84
2022/07/14 09:46:57;;;;;;;;;;;45.30;37.30;;;;;;5012848;28;19956;-88
2022/07/14 09:49:24;;;;;;;;;;;44.10;35.70;;;;;;5015165;28;19920;-83
2022/07/14 09:51:58;;;;;;;;;;;45.60;37.30;;;;;;5019087;28;19912;-91
2022/07/14 09:54:43;;;;;;;;;;;44.30;38.10;;;;;;5011902;28;20431;-88
2022/07/14 09:57:12;;;;;;;;;;;44.90;37.20;;;;;;5004250;28;19913;-90
2022/07/14 09:59:44;;;;;;;;;;;44.40;38.10;;;;;;5013165;28;20011;-87
2022/07/14 10:02:39;;;;;;;;;;;44.60;36.10;;;;;;5001471;28;19913;-87
2022/07/14 10:05:07;;;;;;;;;;;45.30;36.50;;;;;;5002817;28;19917;-87
2022/07/14 10:07:38;;;;;;;;;;;45.00;35.60;;;;;;5025209;28;20003;-87
2022/07/14 10:10:05;;;;;;;;;;;45.10;36.70;;;;;;5021680;28;20487;-92
2022/07/14 10:12:30;;;;;;;;;;;45.70;36.70;;;;;;5019955;28;20474;-90
2022/07/14 10:15:00;;;;;;;;;;;45.30;37.60;;;;;;5003511;28;19925;-89
2022/07/14 10:17:26;;;;;;;;;;;46.00;37.70;;;;;;5020987;28;20407;-91
2022/07/14 10:19:52;;;;;;;;;;;45.90;37.10;;;;;;5003354;28;20375;-90
2022/07/14 10:22:18;;;;;;;;;;;45.30;36.80;;;;;;5023339;28;19916;-89
2022/07/14 10:24:45;;;;;;;;;;;44.70;35.60;;;;;;5002644;28;20566;-91
2022/07/14 10:27:10;;;;;;;;;;;44.90;36.30;;;;;;5021433;28;19970;-87
2022/07/14 10:29:37;;;;;;;;;;;45.70;37.70;;;;;;5003210;28;19916;-86
2022/07/14 10:32:13;;;;;;;;;;;45.10;36.50;;;;;;5010955;28;19924;-86
2022/07/14 10:34:38;;;;;;;;;;;44.50;35.40;;;;;;5022201;28;19967;-85
2022/07/14 10:37:23;;;;;;;;;;;44.60;35.80;;;;;;5012639;28;19913;-86
2022/07/14 10:39:53;;;;;;;;;;;43.70;36.00;;;;;;5010207;28;20008;-85
2022/07/14 10:42:27;;;;;;;;;;;41.30;37.30;;;;;;5010979;28;19913;-86
2022/07/14 10:44:53;;;;;;;;;;;40.60;37.10;;;;;;5001607;28;19917;-85
2022/07/14 10:47:19;;;;;;;;;;;39.60;40.70;;;;;;4994183;28;19920;-85
2022/07/14 10:50:00;;;;;;;;;;;39.30;41.50;;;;;;5015589;28;19917;-87
2022/07/14 10:52:30;;;;;;;;;;;39.00;40.60;;;;;;5000789;28;19929;-87
2022/07/14 10:55:15;;;;;;;;;;;38.20;42.90;;;;;;5014249;28;19928;-88
2022/07/14 10:58:10;;;;;;;;;;;38.40;42.70;;;;;;5018073;28;19920;-90
2022/07/14 11:00:42;;;;;;;;;;;37.00;44.90;;;;;;4999278;28;19913;-90
2022/07/14 11:03:20;;;;;;;;;;;36.40;45.50;;;;;;5017076;28;19913;-87
2022/07/14 11:06:11;;;;;;;;;;;36.50;43.30;;;;;;5017451;28;20273;-89
2022/07/14 11:08:38;;;;;;;;;;;37.10;44.70;;;;;;5023024;28;19913;-85
2022/07/14 11:11:08;;;;;;;;;;;36.50;46.70;;;;;;5016606;28;19912;-88
2022/07/14 11:13:35;;;;;;;;;;;36.60;46.30;;;;;;5003728;28;19966;-88
2022/07/14 11:16:03;;;;;;;;;;;36.00;46.20;;;;;;5014700;28;20053;-88
2022/07/14 11:18:32;;;;;;;;;;;35.80;47.50;;;;;;5017280;28;19917;-87
2022/07/14 11:21:24;;;;;;;;;;;35.90;46.40;;;;;;5005240;28;19920;-88
2022/07/14 11:23:52;;;;;;;;;;;35.70;42.40;;;;;;5012292;28;19968;-88
2022/07/14 11:26:34;;;;;;;;;;;35.70;45.80;;;;;;5014553;28;19959;-88
2022/07/14 11:29:00;;;;;;;;;;;35.60;46.20;;;;;;5015638;28;20501;-87
2022/07/14 11:31:26;;;;;;;;;;;35.70;45.10;;;;;;5020214;28;19967;-87
2022/07/14 11:36:37;;;;;;;;;;;35.60;45.40;;;;;;5020151;28;19966;-87
2022/07/14 11:39:15;;;;;;;;;;;35.30;47.20;;;;;;4996410;28;20405;-89
2022/07/14 11:42:06;;;;;;;;;;;35.20;47.80;;;;;;5015550;28;19917;-88
2022/07/14 11:44:35;;;;;;;;;;;35.20;46.60;;;;;;5001484;28;20039;-88
2022/07/14 11:47:02;;;;;;;;;;;34.80;45.70;;;;;;5014609;28;20285;-88
2022/07/14 11:49:28;;;;;;;;;;;34.60;44.90;;;;;;5018997;28;19913;-88
2022/07/14 11:51:54;;;;;;;;;;;34.70;45.50;;;;;;5015083;28;19952;-89
2022/07/14 11:54:20;;;;;;;;;;;34.60;44.00;;;;;;4997274;28;19924;-89
2022/07/14 11:56:46;;;;;;;;;;;34.80;46.60;;;;;;5015790;28;19921;-87
2022/07/14 11:59:16;;;;;;;;;;;34.50;45.30;;;;;;5023362;28;19917;-86
2022/07/14 12:01:43;;;;;;;;;;;34.40;45.40;;;;;;5017464;28;19913;-89
2022/07/14 12:04:09;;;;;;;;;;;34.60;46.90;;;;;;5032357;28;19909;-88
2022/07/14 12:06:40;;;;;;;;;;;34.60;45.80;;;;;;5013811;28;19959;-86
2022/07/14 12:09:06;;;;;;;;;;;34.50;48.50;;;;;;5017366;28;19980;-88
2022/07/14 12:11:31;;;;;;;;;;;34.60;48.40;;;;;;4998038;28;20399;-89
2022/07/14 12:13:58;;;;;;;;;;;34.70;47.60;;;;;;5012252;28;20414;-89
2022/07/14 12:16:24;;;;;;;;;;;34.60;47.60;;;;;;5000074;28;19925;-88
2022/07/14 12:18:53;;;;;;;;;;;34.40;47.10;;;;;;5011614;28;19914;-86
2022/07/14 12:21:31;;;;;;;;;;;34.40;48.20;;;;;;5013389;28;19913;-89
2022/07/14 12:23:57;;;;;;;;;;;34.10;43.90;;;;;;5015245;28;19917;-88
2022/07/14 12:26:24;;;;;;;;;;;34.10;44.80;;;;;;5002677;28;19914;-89
2022/07/14 12:28:54;;;;;;;;;;;33.80;45.10;;;;;;5011559;28;19918;-88
2022/07/14 12:31:21;;;;;;;;;;;34.20;47.80;;;;;;4998184;28;19963;-90
2022/07/14 12:33:48;;;;;;;;;;;34.20;46.00;;;;;;5017108;28;19995;-88
2022/07/14 12:36:17;;;;;;;;;;;34.00;44.40;;;;;;5007916;28;19968;-89
2022/07/14 12:38:42;;;;;;;;;;;34.10;45.50;;;;;;5023416;28;19952;-89
2022/07/14 12:41:09;;;;;;;;;;;34.20;47.60;;;;;;5007297;28;19952;-87
2022/07/14 12:43:35;;;;;;;;;;;34.10;45.40;;;;;;5016559;28;19914;-88
2022/07/14 12:46:07;;;;;;;;;;;33.80;43.50;;;;;;5006386;28;20663;-89
2022/07/14 12:48:53;;;;;;;;;;;33.80;44.20;;;;;;5018753;28;19921;-88
2022/07/14 12:51:23;;;;;;;;;;;33.90;45.80;;;;;;5033822;28;20407;-87
2022/07/14 12:53:57;;;;;;;;;;;34.00;49.10;;;;;;5002267;28;20367;-87
2022/07/14 12:56:23;;;;;;;;;;;33.90;45.00;;;;;;5013584;28;19956;-87
2022/07/14 12:58:49;;;;;;;;;;;34.10;47.70;;;;;;5001507;28;20005;-86
2022/07/14 13:01:15;;;;;;;;;;;33.90;47.20;;;;;;5023467;28;19913;-88
2022/07/14 13:03:40;;;;;;;;;;;33.90;48.00;;;;;;5003021;28;19917;-88
2022/07/14 13:06:06;;;;;;;;;;;34.10;48.20;;;;;;5021935;28;19917;-86
2022/07/14 13:08:36;;;;;;;;;;;34.00;48.40;;;;;;5019565;28;19913;-84
2022/07/14 13:11:03;;;;;;;;;;;33.80;45.90;;;;;;5016889;28;19978;-85
2022/07/14 13:13:34;;;;;;;;;;;33.70;46.20;;;;;;5019603;28;19913;-84
2022/07/14 13:16:15;;;;;;;;;;;33.60;46.40;;;;;;5016638;28;20020;-85
2022/07/14 13:18:59;;;;;;;;;;;33.80;50.00;;;;;;5019365;28;19913;-82
2022/07/14 13:21:44;;;;;;;;;;;34.00;48.00;;;;;;5017243;28;19920;-82
2022/07/14 13:24:27;;;;;;;;;;;33.90;49.20;;;;;;5014118;28;19917;-84
2022/07/14 13:27:16;;;;;;;;;;;33.80;49.20;;;;;;5014352;28;19921;-85
2022/07/14 13:29:43;;;;;;;;;;;33.60;46.90;;;;;;5006792;28;19913;-86
2022/07/14 13:32:09;;;;;;;;;;;33.80;47.70;;;;;;4995757;28;19917;-86
2022/07/14 13:34:35;;;;;;;;;;;33.70;48.90;;;;;;4987369;28;19952;-84
2022/07/14 13:37:02;;;;;;;;;;;33.50;46.70;;;;;;4995479;28;19921;-83
2022/07/14 13:39:27;;;;;;;;;;;33.60;47.50;;;;;;5015214;28;20410;-84
2022/07/14 13:41:54;;;;;;;;;;;33.40;45.80;;;;;;4999308;28;19924;-84
2022/07/14 13:44:19;;;;;;;;;;;33.40;48.20;;;;;;5011622;28;19917;-84
2022/07/14 13:46:45;;;;;;;;;;;33.50;48.60;;;;;;5011013;28;19917;-85
2022/07/14 13:49:11;;;;;;;;;;;33.50;49.00;;;;;;5014481;28;19940;-83
2022/07/14 13:54:21;;;;;;;;;;;33.40;46.10;;;;;;5020431;28;19923;-88
2022/07/14 13:56:47;;;;;;;;;;;33.30;45.20;;;;;;5008139;28;20376;-86
2022/07/14 13:59:13;;;;;;;;;;;33.20;45.90;;;;;;5019297;28;19913;-84
2022/07/14 14:01:38;;;;;;;;;;;33.30;46.10;;;;;;5021364;28;20388;-83
2022/07/14 14:04:04;;;;;;;;;;;33.30;46.50;;;;;;5017157;28;20379;-86
2022/07/14 14:06:30;;;;;;;;;;;33.10;47.40;;;;;;5018233;28;19912;-85
2022/07/14 14:08:56;;;;;;;;;;;33.00;48.00;;;;;;5022382;28;21017;-89
2022/07/14 14:11:21;;;;;;;;;;;33.10;48.30;;;;;;5023609;28;19992;-89
2022/07/14 14:13:47;;;;;;;;;;;33.20;46.80;;;;;;5024665;28;19912;-88
2022/07/14 14:16:12;;;;;;;;;;;33.20;48.00;;;;;;5017560;28;19963;-87
2022/07/14 14:18:38;;;;;;;;;;;33.00;46.40;;;;;;5023324;28;19915;-89
2022/07/14 14:21:05;;;;;;;;;;;33.10;46.80;;;;;;5003593;28;19913;-89
2022/07/14 14:23:31;;;;;;;;;;;33.10;50.50;;;;;;5023367;28;19943;-88
2022/07/14 14:25:59;;;;;;;;;;;33.20;49.10;;;;;;5008906;28;19916;-89
2022/07/14 14:28:24;;;;;;;;;;;33.10;49.90;;;;;;5000154;28;19913;-88
2022/07/14 14:30:50;;;;;;;;;;;32.90;47.20;;;;;;5007269;28;19967;-88